SBOSBO PUY / LDPL
Speedbird OnlineSpeedbird Online PUY / LDPL

Pula Airport
18:44 29°C

Location Pula, Croatia
Latitude: 44.89350128173828
Longitude: 13.922200202941895
Local Time 18:44 on 20 Jun 2024
UTC +2 hours (Europe/Zagreb)
Currency £1 equals HRK 8.91
METAR LDPL 201630Z 33004KT 300V020 CAVOK 29/20 Q1018 NOSIG
TAF TAF LDPL 201125Z 2012/2112 27010KT CAVOK TX34/2111Z TN20/2103Z BECMG 2015/2017 33006KT BECMG 2110/2112 27008KT
Weather As Of 20 Jun 2024 18:44
Description Clear sky
Wind 7 km/h from North-West (330°)
Cloud Cover 0%
Precipitation Rain: none, Snow: none
Sunrise 05:17
Sunset 20:53
NOTAM 1 active NOTAM
Rotations During the last 90 days there were
4 flights from LHR
4 flights to LHR
Lounges Pula Airport Business lounge, Main terminal
Web Wikipedia
Codes IATA: PUY
ICAO: LDPL
Altitude 84 Meter / 274 Feet
Distance 1,257 KM / 781 Miles
from London.
Runways
RunwayLength (m)Surface
092950Asphalt
272950Asphalt
Radio
TypeDescriptionFrequency
APPAPP118.4
TWRTWR120
Live ATC



Support Speedbird Online

© 2017-2024 Speedbird Online